sensor_id;sensor_type;location;lat;lon;timestamp;pressure;altitude;pressure_sealevel;temperature;humidity
86083;BME280;76693;50.220;14.298;2024-03-02T00:01:12;98400.19;;;8.03;87.34
86083;BME280;76693;50.220;14.298;2024-03-02T00:03:38;98394.09;;;7.99;87.14
86083;BME280;76693;50.220;14.298;2024-03-02T00:06:06;98397.50;;;7.98;87.04
86083;BME280;76693;50.220;14.298;2024-03-02T00:08:32;98394.78;;;7.94;87.11
86083;BME280;76693;50.220;14.298;2024-03-02T00:10:58;98393.00;;;7.91;86.91
86083;BME280;76693;50.220;14.298;2024-03-02T00:13:24;98396.78;;;8.04;87.34
86083;BME280;76693;50.220;14.298;2024-03-02T00:15:54;98395.75;;;7.97;87.59
86083;BME280;76693;50.220;14.298;2024-03-02T00:18:24;98396.72;;;8.01;87.48
86083;BME280;76693;50.220;14.298;2024-03-02T00:20:53;98395.78;;;7.99;87.17
86083;BME280;76693;50.220;14.298;2024-03-02T00:23:20;98400.09;;;8.00;87.10
86083;BME280;76693;50.220;14.298;2024-03-02T00:25:48;98397.38;;;7.94;86.79
86083;BME280;76693;50.220;14.298;2024-03-02T00:28:19;98394.16;;;8.01;87.69
86083;BME280;76693;50.220;14.298;2024-03-02T00:30:51;98396.75;;;8.03;87.23
86083;BME280;76693;50.220;14.298;2024-03-02T00:33:20;98395.66;;;7.94;86.87
86083;BME280;76693;50.220;14.298;2024-03-02T00:35:46;98395.63;;;7.93;87.64
86083;BME280;76693;50.220;14.298;2024-03-02T00:38:12;98393.97;;;7.95;87.97
86083;BME280;76693;50.220;14.298;2024-03-02T00:40:39;98392.31;;;7.97;87.36
86083;BME280;76693;50.220;14.298;2024-03-02T00:43:05;98397.50;;;8.00;87.45
86083;BME280;76693;50.220;14.298;2024-03-02T00:45:30;98396.28;;;7.86;87.78
86083;BME280;76693;50.220;14.298;2024-03-02T00:47:56;98389.66;;;7.94;87.44
86083;BME280;76693;50.220;14.298;2024-03-02T00:50:21;98386.31;;;7.96;87.21
86083;BME280;76693;50.220;14.298;2024-03-02T00:52:46;98379.97;;;7.84;87.80
86083;BME280;76693;50.220;14.298;2024-03-02T00:55:14;98378.19;;;7.83;88.07
86083;BME280;76693;50.220;14.298;2024-03-02T00:57:39;98381.94;;;7.94;86.98
86083;BME280;76693;50.220;14.298;2024-03-02T01:00:05;98389.44;;;7.86;87.32
86083;BME280;76693;50.220;14.298;2024-03-02T01:02:34;98383.81;;;7.69;87.90
86083;BME280;76693;50.220;14.298;2024-03-02T01:05:00;98388.06;;;7.67;87.81
86083;BME280;76693;50.220;14.298;2024-03-02T01:07:25;98388.25;;;7.75;88.16
86083;BME280;76693;50.220;14.298;2024-03-02T01:09:50;98381.34;;;7.72;87.89
86083;BME280;76693;50.220;14.298;2024-03-02T01:12:16;98382.97;;;7.70;88.76
86083;BME280;76693;50.220;14.298;2024-03-02T01:14:41;98374.50;;;7.71;88.34
86083;BME280;76693;50.220;14.298;2024-03-02T01:17:06;98382.38;;;7.79;88.23
86083;BME280;76693;50.220;14.298;2024-03-02T01:19:32;98379.81;;;7.79;88.11
86083;BME280;76693;50.220;14.298;2024-03-02T01:21:57;98383.22;;;7.78;87.82
86083;BME280;76693;50.220;14.298;2024-03-02T01:24:22;98393.72;;;7.86;87.39
86083;BME280;76693;50.220;14.298;2024-03-02T01:26:48;98391.03;;;7.83;87.82
86083;BME280;76693;50.220;14.298;2024-03-02T01:29:13;98393.81;;;7.89;87.49
86083;BME280;76693;50.220;14.298;2024-03-02T01:31:38;98386.91;;;7.88;87.55
86083;BME280;76693;50.220;14.298;2024-03-02T01:34:07;98391.78;;;7.79;87.21
86083;BME280;76693;50.220;14.298;2024-03-02T01:36:32;98390.97;;;7.80;87.67
86083;BME280;76693;50.220;14.298;2024-03-02T01:38:58;98393.72;;;7.86;87.29
86083;BME280;76693;50.220;14.298;2024-03-02T01:41:23;98392.13;;;7.91;87.12
86083;BME280;76693;50.220;14.298;2024-03-02T01:43:48;98391.22;;;7.89;87.46
86083;BME280;76693;50.220;14.298;2024-03-02T01:46:14;98391.78;;;7.79;87.37
86083;BME280;76693;50.220;14.298;2024-03-02T01:48:39;98386.75;;;7.82;87.17
86083;BME280;76693;50.220;14.298;2024-03-02T01:51:04;98388.09;;;7.69;88.11
86083;BME280;76693;50.220;14.298;2024-03-02T01:53:31;98388.06;;;7.67;88.01
86083;BME280;76693;50.220;14.298;2024-03-02T01:55:57;98379.66;;;7.73;87.96
86083;BME280;76693;50.220;14.298;2024-03-02T01:58:22;98383.19;;;7.77;87.85
86083;BME280;76693;50.220;14.298;2024-03-02T02:00:47;98381.16;;;7.66;88.14
86083;BME280;76693;50.220;14.298;2024-03-02T02:03:13;98384.28;;;7.56;87.91
86083;BME280;76693;50.220;14.298;2024-03-02T02:05:39;98387.44;;;7.46;88.69
86083;BME280;76693;50.220;14.298;2024-03-02T02:08:07;98380.22;;;7.34;89.65
86083;BME280;76693;50.220;14.298;2024-03-02T02:10:32;98385.59;;;7.42;89.28
86083;BME280;76693;50.220;14.298;2024-03-02T02:12:58;98381.69;;;7.55;89.58
86083;BME280;76693;50.220;14.298;2024-03-02T02:15:24;98377.00;;;7.70;88.08
86083;BME280;76693;50.220;14.298;2024-03-02T02:17:50;98377.84;;;7.70;88.08
86083;BME280;76693;50.220;14.298;2024-03-02T02:20:16;98382.19;;;7.71;88.47
86083;BME280;76693;50.220;14.298;2024-03-02T02:22:53;98379.69;;;7.74;88.19
86083;BME280;76693;50.220;14.298;2024-03-02T02:25:19;98378.03;;;7.77;87.98
86083;BME280;76693;50.220;14.298;2024-03-02T02:27:44;98378.31;;;7.86;87.58
86083;BME280;76693;50.220;14.298;2024-03-02T02:30:10;98378.47;;;7.92;87.03
86083;BME280;76693;50.220;14.298;2024-03-02T02:32:35;98379.06;;;7.83;87.35
86083;BME280;76693;50.220;14.298;2024-03-02T02:35:00;98369.50;;;7.78;87.45
86083;BME280;76693;50.220;14.298;2024-03-02T02:37:26;98362.66;;;7.77;87.38
86083;BME280;76693;50.220;14.298;2024-03-02T02:39:51;98367.59;;;7.70;87.61
86083;BME280;76693;50.220;14.298;2024-03-02T02:42:16;98364.88;;;7.96;88.03
86083;BME280;76693;50.220;14.298;2024-03-02T02:44:41;98364.63;;;7.87;87.62
86083;BME280;76693;50.220;14.298;2024-03-02T02:47:07;98363.22;;;7.96;87.99
86083;BME280;76693;50.220;14.298;2024-03-02T02:49:32;98374.16;;;7.91;87.37
86083;BME280;76693;50.220;14.298;2024-03-02T02:51:58;98368.13;;;7.89;87.40
86083;BME280;76693;50.220;14.298;2024-03-02T02:54:23;98365.59;;;7.60;87.94
86083;BME280;76693;50.220;14.298;2024-03-02T02:56:48;98372.91;;;7.46;89.18
86083;BME280;76693;50.220;14.298;2024-03-02T02:59:14;98373.50;;;7.38;89.41
86083;BME280;76693;50.220;14.298;2024-03-02T03:01:39;98368.41;;;7.69;88.94
86083;BME280;76693;50.220;14.298;2024-03-02T03:04:04;98376.22;;;7.72;88.40
86083;BME280;76693;50.220;14.298;2024-03-02T03:06:30;98371.91;;;7.71;87.81
86083;BME280;76693;50.220;14.298;2024-03-02T03:08:55;98371.91;;;7.71;88.07
86083;BME280;76693;50.220;14.298;2024-03-02T03:11:20;98369.34;;;7.71;87.89
86083;BME280;76693;50.220;14.298;2024-03-02T03:13:48;98373.19;;;7.57;88.61
86083;BME280;76693;50.220;14.298;2024-03-02T03:16:13;98365.84;;;7.69;88.56
86083;BME280;76693;50.220;14.298;2024-03-02T03:18:38;98371.50;;;7.58;88.62
86083;BME280;76693;50.220;14.298;2024-03-02T03:21:04;98375.41;;;7.45;89.35
86083;BME280;76693;50.220;14.298;2024-03-02T03:23:29;98372.91;;;7.46;89.06
86083;BME280;76693;50.220;14.298;2024-03-02T03:25:54;98376.50;;;7.53;89.22
86083;BME280;76693;50.220;14.298;2024-03-02T03:28:20;98382.63;;;7.58;89.06
86083;BME280;76693;50.220;14.298;2024-03-02T03:30:45;98380.22;;;7.63;89.00
86083;BME280;76693;50.220;14.298;2024-03-02T03:33:10;98385.88;;;7.51;89.68
86083;BME280;76693;50.220;14.298;2024-03-02T03:35:36;98387.50;;;7.49;89.58
86083;BME280;76693;50.220;14.298;2024-03-02T03:38:02;98382.91;;;7.67;88.80
86083;BME280;76693;50.220;14.298;2024-03-02T03:40:27;98384.91;;;7.78;88.86
86083;BME280;76693;50.220;14.298;2024-03-02T03:42:53;98391.88;;;7.82;88.30
86083;BME280;76693;50.220;14.298;2024-03-02T03:45:19;98387.59;;;7.82;87.63
86083;BME280;76693;50.220;14.298;2024-03-02T03:47:45;98389.22;;;7.79;88.78
86083;BME280;76693;50.220;14.298;2024-03-02T03:50:10;98384.91;;;7.78;88.08
86083;BME280;76693;50.220;14.298;2024-03-02T03:52:35;98393.25;;;7.70;88.62
86083;BME280;76693;50.220;14.298;2024-03-02T03:55:01;98391.63;;;7.72;88.99
86083;BME280;76693;50.220;14.298;2024-03-02T03:57:26;98386.59;;;7.75;89.16
86083;BME280;76693;50.220;14.298;2024-03-02T03:59:52;98394.09;;;7.69;88.79
86083;BME280;76693;50.220;14.298;2024-03-02T04:02:18;98391.72;;;7.75;89.96
86083;BME280;76693;50.220;14.298;2024-03-02T04:04:43;98392.34;;;7.68;89.37
86083;BME280;76693;50.220;14.298;2024-03-02T04:07:08;98399.59;;;7.83;89.07
86083;BME280;76693;50.220;14.298;2024-03-02T04:09:34;98389.00;;;7.71;89.26
86083;BME280;76693;50.220;14.298;2024-03-02T04:11:59;98398.38;;;7.70;89.50
86083;BME280;76693;50.220;14.298;2024-03-02T04:14:24;98400.91;;;7.69;89.30
86083;BME280;76693;50.220;14.298;2024-03-02T04:16:50;98399.69;;;7.86;88.13
86083;BME280;76693;50.220;14.298;2024-03-02T04:19:15;98404.56;;;7.75;89.36
86083;BME280;76693;50.220;14.298;2024-03-02T04:21:40;98403.09;;;7.85;89.57
86083;BME280;76693;50.220;14.298;2024-03-02T04:24:06;98411.03;;;7.93;88.75
86083;BME280;76693;50.220;14.298;2024-03-02T04:26:31;98414.47;;;7.93;88.77
86083;BME280;76693;50.220;14.298;2024-03-02T04:28:56;98415.63;;;7.74;89.75
86083;BME280;76693;50.220;14.298;2024-03-02T04:31:21;98416.47;;;7.75;89.56
86083;BME280;76693;50.220;14.298;2024-03-02T04:33:47;98413.28;;;7.82;89.94
86083;BME280;76693;50.220;14.298;2024-03-02T04:36:12;98424.41;;;7.83;88.83
86083;BME280;76693;50.220;14.298;2024-03-02T04:38:38;98426.25;;;7.87;89.26
86083;BME280;76693;50.220;14.298;2024-03-02T04:41:04;98422.19;;;7.95;88.14
86083;BME280;76693;50.220;14.298;2024-03-02T04:43:33;98429.78;;;7.90;88.76
86083;BME280;76693;50.220;14.298;2024-03-02T04:45:59;98424.13;;;8.02;88.65
86083;BME280;76693;50.220;14.298;2024-03-02T04:48:25;98436.13;;;8.03;88.15
86083;BME280;76693;50.220;14.298;2024-03-02T04:50:50;98432.31;;;7.89;88.76
86083;BME280;76693;50.220;14.298;2024-03-02T04:53:16;98434.06;;;7.91;88.67
86083;BME280;76693;50.220;14.298;2024-03-02T04:55:41;98440.25;;;7.96;88.03
86083;BME280;76693;50.220;14.298;2024-03-02T04:58:06;98438.91;;;7.81;88.33
86083;BME280;76693;50.220;14.298;2024-03-02T05:00:32;98444.09;;;7.82;88.94
86083;BME280;76693;50.220;14.298;2024-03-02T05:02:57;98442.31;;;7.80;88.87
86083;BME280;76693;50.220;14.298;2024-03-02T05:05:23;98453.63;;;7.86;88.55
86083;BME280;76693;50.220;14.298;2024-03-02T05:07:48;98456.50;;;7.97;87.94
86083;BME280;76693;50.220;14.298;2024-03-02T05:10:13;98457.59;;;8.05;88.54
86083;BME280;76693;50.220;14.298;2024-03-02T05:12:39;98464.47;;;8.06;87.60
86083;BME280;76693;50.220;14.298;2024-03-02T05:15:11;98460.69;;;7.93;87.49
86083;BME280;76693;50.220;14.298;2024-03-02T05:17:37;98464.59;;;7.81;88.21
86083;BME280;76693;50.220;14.298;2024-03-02T05:20:03;98465.50;;;7.83;87.97
86083;BME280;76693;50.220;14.298;2024-03-02T05:22:29;98458.34;;;7.72;88.77
86083;BME280;76693;50.220;14.298;2024-03-02T05:24:54;98459.22;;;7.73;88.75
86083;BME280;76693;50.220;14.298;2024-03-02T05:27:20;98463.66;;;7.79;88.29
86083;BME280;76693;50.220;14.298;2024-03-02T05:29:45;98466.47;;;7.86;88.85
86083;BME280;76693;50.220;14.298;2024-03-02T05:32:12;98464.53;;;7.79;88.54
86083;BME280;76693;50.220;14.298;2024-03-02T05:34:37;98475.75;;;7.83;88.46
86083;BME280;76693;50.220;14.298;2024-03-02T05:37:03;98474.75;;;7.78;88.45
86083;BME280;76693;50.220;14.298;2024-03-02T05:39:28;98477.06;;;7.68;89.16
86083;BME280;76693;50.220;14.298;2024-03-02T05:41:53;98483.91;;;7.69;89.17
86083;BME280;76693;50.220;14.298;2024-03-02T05:44:18;98484.03;;;7.72;89.29
86083;BME280;76693;50.220;14.298;2024-03-02T05:46:45;98492.47;;;7.68;89.42
86083;BME280;76693;50.220;14.298;2024-03-02T05:49:11;98499.31;;;7.69;89.47
86083;BME280;76693;50.220;14.298;2024-03-02T05:51:36;98506.41;;;7.77;89.43
86083;BME280;76693;50.220;14.298;2024-03-02T05:54:02;98496.25;;;7.81;88.90
86083;BME280;76693;50.220;14.298;2024-03-02T05:56:28;98509.13;;;7.83;88.74
86083;BME280;76693;50.220;14.298;2024-03-02T05:58:53;98504.72;;;7.79;88.31
86083;BME280;76693;50.220;14.298;2024-03-02T06:01:37;98509.78;;;7.75;88.82
86083;BME280;76693;50.220;14.298;2024-03-02T06:04:02;98508.22;;;7.81;88.91
86083;BME280;76693;50.220;14.298;2024-03-02T06:06:28;98510.06;;;7.85;88.59
86083;BME280;76693;50.220;14.298;2024-03-02T06:08:54;98509.50;;;7.95;88.73
86083;BME280;76693;50.220;14.298;2024-03-02T06:11:20;98513.53;;;7.87;88.18
86083;BME280;76693;50.220;14.298;2024-03-02T06:13:47;98515.19;;;7.85;88.65
86083;BME280;76693;50.220;14.298;2024-03-02T06:16:13;98523.34;;;8.00;88.47
86083;BME280;76693;50.220;14.298;2024-03-02T06:18:39;98526.50;;;7.91;88.61
86083;BME280;76693;50.220;14.298;2024-03-02T06:21:04;98527.59;;;7.98;88.72
86083;BME280;76693;50.220;14.298;2024-03-02T06:23:29;98528.59;;;8.03;88.10
86083;BME280;76693;50.220;14.298;2024-03-02T06:25:55;98530.41;;;8.07;87.63
86083;BME280;76693;50.220;14.298;2024-03-02T06:28:20;98525.28;;;8.07;87.90
86083;BME280;76693;50.220;14.298;2024-03-02T06:30:47;98524.44;;;8.08;87.81
86083;BME280;76693;50.220;14.298;2024-03-02T06:33:12;98527.25;;;7.87;88.83
86083;BME280;76693;50.220;14.298;2024-03-02T06:35:37;98522.84;;;7.83;89.29
86083;BME280;76693;50.220;14.298;2024-03-02T06:38:04;98534.28;;;7.93;89.04
86083;BME280;76693;50.220;14.298;2024-03-02T06:40:29;98524.78;;;7.90;88.92
86083;BME280;76693;50.220;14.298;2024-03-02T06:42:55;98530.69;;;7.88;89.44
86083;BME280;76693;50.220;14.298;2024-03-02T06:45:20;98530.97;;;7.97;89.53
86083;BME280;76693;50.220;14.298;2024-03-02T06:47:46;98535.00;;;7.89;89.23
86083;BME280;76693;50.220;14.298;2024-03-02T06:50:11;98533.81;;;8.06;88.56
86083;BME280;76693;50.220;14.298;2024-03-02T06:52:36;98537.28;;;8.08;88.95
86083;BME280;76693;50.220;14.298;2024-03-02T06:55:02;98542.03;;;7.94;88.82
86083;BME280;76693;50.220;14.298;2024-03-02T06:57:29;98545.22;;;7.87;89.31
86083;BME280;76693;50.220;14.298;2024-03-02T06:59:55;98553.06;;;7.92;89.24
86083;BME280;76693;50.220;14.298;2024-03-02T07:02:24;98548.22;;;8.01;88.69
86083;BME280;76693;50.220;14.298;2024-03-02T07:04:50;98549.75;;;7.96;88.61
86083;BME280;76693;50.220;14.298;2024-03-02T07:07:16;98556.84;;;8.03;88.66
86083;BME280;76693;50.220;14.298;2024-03-02T07:09:41;98555.53;;;8.17;88.22
86083;BME280;76693;50.220;14.298;2024-03-02T07:12:07;98559.88;;;8.18;87.11
86083;BME280;76693;50.220;14.298;2024-03-02T07:14:32;98555.91;;;8.30;87.28
86083;BME280;76693;50.220;14.298;2024-03-02T07:17:16;98565.09;;;8.50;86.90
86083;BME280;76693;50.220;14.298;2024-03-02T07:19:41;98557.72;;;8.62;86.43
86083;BME280;76693;50.220;14.298;2024-03-02T07:22:07;98563.72;;;8.61;86.50
86083;BME280;76693;50.220;14.298;2024-03-02T07:24:39;98564.59;;;8.62;86.21
86083;BME280;76693;50.220;14.298;2024-03-02T07:27:05;98564.78;;;8.69;86.20
86083;BME280;76693;50.220;14.298;2024-03-02T07:29:30;98570.78;;;8.68;86.15
86083;BME280;76693;50.220;14.298;2024-03-02T07:31:56;98567.63;;;8.48;86.63
86083;BME280;76693;50.220;14.298;2024-03-02T07:34:21;98582.59;;;8.63;86.32
86083;BME280;76693;50.220;14.298;2024-03-02T07:36:47;98584.53;;;8.70;85.25
86083;BME280;76693;50.220;14.298;2024-03-02T07:39:12;98591.69;;;8.81;84.75
86083;BME280;76693;50.220;14.298;2024-03-02T07:41:37;98589.19;;;8.84;85.04
86083;BME280;76693;50.220;14.298;2024-03-02T07:44:03;98593.66;;;8.91;85.21
86083;BME280;76693;50.220;14.298;2024-03-02T07:46:28;98603.09;;;8.90;83.64
86083;BME280;76693;50.220;14.298;2024-03-02T07:48:53;98606.66;;;8.95;84.41
86083;BME280;76693;50.220;14.298;2024-03-02T07:51:19;98606.63;;;8.94;84.21
86083;BME280;76693;50.220;14.298;2024-03-02T07:53:44;98606.22;;;9.10;84.73
86083;BME280;76693;50.220;14.298;2024-03-02T07:56:09;98601.06;;;9.10;84.02
86083;BME280;76693;50.220;14.298;2024-03-02T07:58:35;98594.22;;;9.44;83.56
86083;BME280;76693;50.220;14.298;2024-03-02T08:01:00;98587.81;;;9.63;81.94
86083;BME280;76693;50.220;14.298;2024-03-02T08:03:26;98586.34;;;9.38;83.51
86083;BME280;76693;50.220;14.298;2024-03-02T08:05:52;98583.00;;;9.77;84.79
86083;BME280;76693;50.220;14.298;2024-03-02T08:08:17;98588.16;;;9.77;82.45
86083;BME280;76693;50.220;14.298;2024-03-02T08:10:43;98584.25;;;10.30;81.28
86083;BME280;76693;50.220;14.298;2024-03-02T08:13:08;98578.03;;;9.84;81.74
86083;BME280;76693;50.220;14.298;2024-03-02T08:15:34;98577.69;;;10.07;81.85
86083;BME280;76693;50.220;14.298;2024-03-02T08:17:59;98592.38;;;10.47;81.04
86083;BME280;76693;50.220;14.298;2024-03-02T08:20:24;98584.19;;;10.27;80.96
86083;BME280;76693;50.220;14.298;2024-03-02T08:22:50;98576.66;;;10.36;80.41
86083;BME280;76693;50.220;14.298;2024-03-02T08:25:16;98586.59;;;10.59;80.13
86083;BME280;76693;50.220;14.298;2024-03-02T08:27:41;98578.91;;;10.62;79.70
86083;BME280;76693;50.220;14.298;2024-03-02T08:30:08;98580.47;;;10.96;78.21
86083;BME280;76693;50.220;14.298;2024-03-02T08:32:35;98583.69;;;10.84;76.71
86083;BME280;76693;50.220;14.298;2024-03-02T08:35:00;98589.94;;;10.97;77.93
86083;BME280;76693;50.220;14.298;2024-03-02T08:37:27;98588.13;;;10.93;77.46
86083;BME280;76693;50.220;14.298;2024-03-02T08:39:53;98589.03;;;10.53;76.54
86083;BME280;76693;50.220;14.298;2024-03-02T08:42:20;98597.38;;;10.82;75.81
86083;BME280;76693;50.220;14.298;2024-03-02T08:44:46;98597.47;;;10.86;76.48
86083;BME280;76693;50.220;14.298;2024-03-02T08:47:11;98598.78;;;11.08;74.67
86083;BME280;76693;50.220;14.298;2024-03-02T08:49:36;98604.97;;;11.19;73.41
86083;BME280;76693;50.220;14.298;2024-03-02T08:52:02;98600.50;;;11.09;74.71
86083;BME280;76693;50.220;14.298;2024-03-02T08:54:27;98607.41;;;11.12;75.29
86083;BME280;76693;50.220;14.298;2024-03-02T08:56:53;98603.00;;;11.53;72.81
86083;BME280;76693;50.220;14.298;2024-03-02T08:59:18;98604.72;;;12.04;73.29
86083;BME280;76693;50.220;14.298;2024-03-02T09:01:44;98605.44;;;11.94;72.74
86083;BME280;76693;50.220;14.298;2024-03-02T09:04:10;98609.50;;;11.81;71.81
86083;BME280;76693;50.220;14.298;2024-03-02T09:06:35;98606.94;;;11.81;71.04
86083;BME280;76693;50.220;14.298;2024-03-02T09:09:01;98607.91;;;12.44;71.80
86083;BME280;76693;50.220;14.298;2024-03-02T09:11:26;98610.03;;;12.13;69.65
86083;BME280;76693;50.220;14.298;2024-03-02T09:13:52;98611.50;;;11.96;71.42
86083;BME280;76693;50.220;14.298;2024-03-02T09:16:18;98607.44;;;12.13;71.13
86083;BME280;76693;50.220;14.298;2024-03-02T09:18:43;98611.69;;;12.70;70.78
86083;BME280;76693;50.220;14.298;2024-03-02T09:21:09;98599.28;;;12.43;70.35
86083;BME280;76693;50.220;14.298;2024-03-02T09:23:34;98599.00;;;12.23;69.81
86083;BME280;76693;50.220;14.298;2024-03-02T09:25:59;98605.03;;;12.24;69.87
86083;BME280;76693;50.220;14.298;2024-03-02T09:28:25;98604.56;;;12.54;67.92
86083;BME280;76693;50.220;14.298;2024-03-02T09:30:50;98600.06;;;13.06;67.09
86083;BME280;76693;50.220;14.298;2024-03-02T09:33:15;98601.97;;;13.22;66.73
86083;BME280;76693;50.220;14.298;2024-03-02T09:35:41;98599.84;;;12.22;69.08
86083;BME280;76693;50.220;14.298;2024-03-02T09:38:06;98603.78;;;12.60;68.37
86083;BME280;76693;50.220;14.298;2024-03-02T09:40:31;98593.25;;;13.17;68.64
86083;BME280;76693;50.220;14.298;2024-03-02T09:42:57;98597.38;;;12.32;67.82
86083;BME280;76693;50.220;14.298;2024-03-02T09:45:24;98592.91;;;12.20;68.52
86083;BME280;76693;50.220;14.298;2024-03-02T09:47:50;98591.22;;;12.22;68.82
86083;BME280;76693;50.220;14.298;2024-03-02T09:50:16;98590.38;;;12.26;68.39
86083;BME280;76693;50.220;14.298;2024-03-02T09:52:42;98587.78;;;12.90;67.56
86083;BME280;76693;50.220;14.298;2024-03-02T09:55:08;98588.91;;;13.13;66.89
86083;BME280;76693;50.220;14.298;2024-03-02T09:57:34;98589.63;;;13.00;68.37
86083;BME280;76693;50.220;14.298;2024-03-02T09:59:59;98580.84;;;12.89;65.54
86083;BME280;76693;50.220;14.298;2024-03-02T10:02:24;98588.06;;;13.17;67.34
86083;BME280;76693;50.220;14.298;2024-03-02T10:04:50;98575.78;;;12.27;66.04
86083;BME280;76693;50.220;14.298;2024-03-02T10:07:17;98582.63;;;12.93;65.63
86083;BME280;76693;50.220;14.298;2024-03-02T10:09:43;98577.16;;;13.46;66.64
86083;BME280;76693;50.220;14.298;2024-03-02T10:12:10;98571.16;;;13.48;65.57
86083;BME280;76693;50.220;14.298;2024-03-02T10:14:37;98576.50;;;13.68;64.82
86083;BME280;76693;50.220;14.298;2024-03-02T10:17:05;98576.72;;;13.96;63.11
86083;BME280;76693;50.220;14.298;2024-03-02T10:19:31;98579.59;;;14.42;63.14
86083;BME280;76693;50.220;14.298;2024-03-02T10:21:58;98571.44;;;13.84;61.86
86083;BME280;76693;50.220;14.298;2024-03-02T10:24:24;98578.34;;;13.85;62.61
86083;BME280;76693;50.220;14.298;2024-03-02T10:26:51;98584.00;;;14.52;62.43
86083;BME280;76693;50.220;14.298;2024-03-02T10:29:17;98572.63;;;14.35;61.37
86083;BME280;76693;50.220;14.298;2024-03-02T10:31:46;98573.38;;;14.12;61.00
86083;BME280;76693;50.220;14.298;2024-03-02T10:34:12;98580.19;;;13.98;60.71
86083;BME280;76693;50.220;14.298;2024-03-02T10:36:41;98583.31;;;13.57;62.67
86083;BME280;76693;50.220;14.298;2024-03-02T10:39:08;98576.53;;;13.71;61.27
86083;BME280;76693;50.220;14.298;2024-03-02T10:41:35;98583.13;;;13.39;62.92
86083;BME280;76693;50.220;14.298;2024-03-02T10:44:08;98585.97;;;12.83;64.65
86083;BME280;76693;50.220;14.298;2024-03-02T10:46:36;98576.72;;;13.05;66.72
86083;BME280;76693;50.220;14.298;2024-03-02T10:49:03;98582.31;;;12.67;66.09
86083;BME280;76693;50.220;14.298;2024-03-02T10:51:30;98575.84;;;13.04;65.83
86083;BME280;76693;50.220;14.298;2024-03-02T10:54:02;98573.56;;;13.30;63.36
86083;BME280;76693;50.220;14.298;2024-03-02T10:56:32;98568.56;;;13.50;62.60
86083;BME280;76693;50.220;14.298;2024-03-02T11:02:03;98564.66;;;14.01;62.21
86083;BME280;76693;50.220;14.298;2024-03-02T11:04:30;98559.56;;;14.19;63.29
86083;BME280;76693;50.220;14.298;2024-03-02T11:06:59;98560.22;;;13.85;60.56
86083;BME280;76693;50.220;14.298;2024-03-02T11:09:28;98552.97;;;13.44;62.62
86083;BME280;76693;50.220;14.298;2024-03-02T11:15:10;98554.75;;;13.50;62.15
86083;BME280;76693;50.220;14.298;2024-03-02T11:17:39;98553.00;;;13.47;61.56
86083;BME280;76693;50.220;14.298;2024-03-02T11:20:07;98551.63;;;13.92;59.87
86083;BME280;76693;50.220;14.298;2024-03-02T11:22:41;98545.56;;;13.87;59.37
86083;BME280;76693;50.220;14.298;2024-03-02T11:25:22;98544.13;;;14.44;59.16
86083;BME280;76693;50.220;14.298;2024-03-02T11:33:01;98543.63;;;13.64;59.49
86083;BME280;76693;50.220;14.298;2024-03-02T11:35:32;98547.38;;;14.00;61.32
86083;BME280;76693;50.220;14.298;2024-03-02T11:37:58;98545.72;;;14.14;59.95
86083;BME280;76693;50.220;14.298;2024-03-02T11:40:28;98543.22;;;14.31;59.88
86083;BME280;76693;50.220;14.298;2024-03-02T11:42:53;98534.38;;;13.98;58.81
86083;BME280;76693;50.220;14.298;2024-03-02T11:45:23;98536.84;;;13.79;58.51
86083;BME280;76693;50.220;14.298;2024-03-02T11:47:56;98535.47;;;14.39;58.27
86083;BME280;76693;50.220;14.298;2024-03-02T11:50:35;98531.13;;;14.29;58.48
86083;BME280;76693;50.220;14.298;2024-03-02T11:53:02;98527.59;;;14.17;58.89
86083;BME280;76693;50.220;14.298;2024-03-02T11:55:30;98522.91;;;13.64;62.68
86083;BME280;76693;50.220;14.298;2024-03-02T11:57:55;98533.59;;;14.13;60.58
86083;BME280;76693;50.220;14.298;2024-03-02T12:00:21;98535.50;;;14.43;56.89
86083;BME280;76693;50.220;14.298;2024-03-02T12:03:00;98529.41;;;14.34;60.35
86083;BME280;76693;50.220;14.298;2024-03-02T12:05:26;98533.66;;;14.22;57.85
86083;BME280;76693;50.220;14.298;2024-03-02T12:07:56;98529.56;;;14.58;58.55
86083;BME280;76693;50.220;14.298;2024-03-02T12:10:22;98525.25;;;14.79;57.54
86083;BME280;76693;50.220;14.298;2024-03-02T12:12:47;98523.53;;;14.75;56.13
86083;BME280;76693;50.220;14.298;2024-03-02T12:15:13;98519.28;;;15.04;57.08
86083;BME280;76693;50.220;14.298;2024-03-02T12:17:38;98525.38;;;15.21;56.15
86083;BME280;76693;50.220;14.298;2024-03-02T12:20:05;98519.22;;;14.72;56.26
86083;BME280;76693;50.220;14.298;2024-03-02T12:22:30;98518.38;;;14.90;57.64
86083;BME280;76693;50.220;14.298;2024-03-02T12:24:56;98518.09;;;14.22;57.78
86083;BME280;76693;50.220;14.298;2024-03-02T12:27:21;98519.75;;;14.08;58.48
86083;BME280;76693;50.220;14.298;2024-03-02T12:29:47;98520.00;;;14.51;59.12
86083;BME280;76693;50.220;14.298;2024-03-02T12:32:14;98523.44;;;14.53;56.94
86083;BME280;76693;50.220;14.298;2024-03-02T12:34:39;98521.63;;;14.34;58.84
86083;BME280;76693;50.220;14.298;2024-03-02T12:37:05;98518.31;;;14.59;56.73
86083;BME280;76693;50.220;14.298;2024-03-02T12:39:30;98526.59;;;13.97;58.42
86083;BME280;76693;50.220;14.298;2024-03-02T12:41:58;98521.31;;;13.79;58.97
86083;BME280;76693;50.220;14.298;2024-03-02T12:44:23;98522.22;;;13.87;58.20
86083;BME280;76693;50.220;14.298;2024-03-02T12:46:48;98520.38;;;13.72;60.31
86083;BME280;76693;50.220;14.298;2024-03-02T12:49:15;98514.25;;;13.62;61.83
86083;BME280;76693;50.220;14.298;2024-03-02T12:51:45;98511.13;;;14.09;59.27
86083;BME280;76693;50.220;14.298;2024-03-02T12:54:16;98525.91;;;14.26;58.53
86083;BME280;76693;50.220;14.298;2024-03-02T12:56:42;98514.34;;;13.75;58.23
86083;BME280;76693;50.220;14.298;2024-03-02T12:59:18;98516.25;;;14.00;57.40
86083;BME280;76693;50.220;14.298;2024-03-02T13:01:54;98510.25;;;14.15;57.65
86083;BME280;76693;50.220;14.298;2024-03-02T13:04:27;98512.34;;;13.40;59.95